Time;durP1;ratioP1;P1;durP2;ratioP2;P2;SDS_P1;SDS_P2;PMS_P1;PMS_P2;Temp;Humidity;BMP_temperature;BMP_pressure;BME280_temperature;BME280_humidity;BME280_pressure;Samples;Min_cycle;Max_cycle;Signal;HPM_P1;HPM_P2
2022/06/06 00:00:40;;;;;;;5.10;4.50;;;;;;;25.94;49.65;100699.15;106905;1283;61289;-82
2022/06/06 00:03:06;;;;;;;5.30;4.60;;;;;;;25.94;49.76;100692.66;106616;1284;61276;-81
2022/06/06 00:05:32;;;;;;;5.30;4.50;;;;;;;25.94;49.49;100673.58;106970;1283;61280;-81
2022/06/06 00:07:58;;;;;;;6.40;4.60;;;;;;;25.94;49.64;100667.80;106627;1283;61305;-81
2022/06/06 00:10:25;;;;;;;5.80;4.30;;;;;;;25.94;49.68;100678.65;106860;1283;61215;-81
2022/06/06 00:12:50;;;;;;;5.00;4.50;;;;;;;25.94;49.67;100696.50;106912;1283;61349;-82
2022/06/06 00:15:16;;;;;;;5.50;4.60;;;;;;;25.94;49.52;100721.20;107228;1283;61279;-82
2022/06/06 00:17:41;;;;;;;5.60;4.50;;;;;;;25.93;49.76;100747.38;106925;1283;61705;-82
2022/06/06 00:20:08;;;;;;;6.10;4.90;;;;;;;25.94;49.74;100769.54;106931;1283;61262;-83
2022/06/06 00:22:33;;;;;;;6.00;4.40;;;;;;;25.94;49.70;100756.01;106887;1282;61471;-80
2022/06/06 00:24:59;;;;;;;5.10;4.60;;;;;;;25.93;49.54;100735.48;106985;1283;61280;-82
2022/06/06 00:27:25;;;;;;;5.40;4.70;;;;;;;25.93;49.71;100725.63;106757;1283;61255;-83
2022/06/06 00:29:53;;;;;;;6.10;4.70;;;;;;;25.93;49.83;100718.57;106917;1283;73609;-82
2022/06/06 00:35:06;;;;;;;5.30;4.40;;;;;;;25.92;49.59;100694.11;106992;1283;61242;-81
2022/06/06 00:37:33;;;;;;;5.90;4.50;;;;;;;25.92;49.54;100698.84;106910;1283;61276;-81
2022/06/06 00:40:01;;;;;;;5.60;4.60;;;;;;;25.92;49.69;100710.70;106904;1283;72793;-80
2022/06/06 00:42:30;;;;;;;5.20;4.10;;;;;;;25.92;49.52;100715.09;106902;1283;75560;-82
2022/06/06 00:45:14;;;;;;;5.10;4.30;;;;;;;25.92;49.74;100714.55;107213;1283;61157;-81
2022/06/06 00:47:40;;;;;;;5.00;4.20;;;;;;;25.92;49.50;100720.88;106913;1283;61123;-81
2022/06/06 00:50:14;;;;;;;4.90;4.30;;;;;;;25.91;49.60;100720.54;106937;1283;61295;-81
2022/06/06 00:52:41;;;;;;;7.00;4.30;;;;;;;25.91;49.76;100717.32;106901;1283;75879;-81
2022/06/06 00:55:10;;;;;;;5.00;4.10;;;;;;;25.91;49.65;100725.98;107242;1283;61115;-81
2022/06/06 00:57:38;;;;;;;5.80;4.40;;;;;;;25.91;49.72;100753.00;106936;1283;61743;-81
2022/06/06 01:00:08;;;;;;;5.20;4.30;;;;;;;25.91;49.64;100775.05;106908;1283;72827;-81
2022/06/06 01:02:33;;;;;;;5.20;4.20;;;;;;;25.90;49.87;100779.92;106441;1285;75460;-81
2022/06/06 01:05:01;;;;;;;4.90;4.30;;;;;;;25.91;49.73;100757.55;106925;1283;61398;-83
2022/06/06 01:07:28;;;;;;;5.50;4.20;;;;;;;25.91;49.64;100724.00;106897;1283;61258;-83
2022/06/06 01:09:53;;;;;;;5.40;4.00;;;;;;;25.90;49.63;100698.65;106834;1285;74116;-81
2022/06/06 01:12:19;;;;;;;5.60;4.50;;;;;;;25.90;49.71;100683.84;107252;1283;61262;-82
2022/06/06 01:14:56;;;;;;;5.40;4.10;;;;;;;25.90;49.90;100680.63;106684;1283;61300;-82
2022/06/06 01:17:40;;;;;;;6.60;4.60;;;;;;;25.90;49.81;100674.16;106730;1283;61233;-82
2022/06/06 01:20:41;;;;;;;5.70;4.10;;;;;;;25.89;49.68;100672.57;106887;1283;73824;-85
2022/06/06 01:23:41;;;;;;;5.40;3.90;;;;;;;25.89;49.68;100662.86;106486;1283;73760;-81
2022/06/06 01:26:31;;;;;;;4.20;3.60;;;;;;;25.89;49.78;100656.40;107235;1283;61273;-81
2022/06/06 01:29:09;;;;;;;5.50;3.80;;;;;;;25.89;49.67;100661.81;107223;1282;61294;-81
2022/06/06 01:31:44;;;;;;;4.90;3.90;;;;;;;25.88;49.55;100663.67;107225;1283;72891;-81
2022/06/06 01:34:10;;;;;;;4.70;3.70;;;;;;;25.88;49.60;100665.29;107224;1283;74656;-81
2022/06/06 01:36:37;;;;;;;5.50;4.00;;;;;;;25.88;49.75;100663.70;106874;1283;61267;-82
2022/06/06 01:39:05;;;;;;;4.30;3.60;;;;;;;25.88;49.67;100661.67;106880;1283;61164;-81
2022/06/06 01:41:54;;;;;;;4.40;3.60;;;;;;;25.88;49.47;100659.55;106866;1283;73648;-81
2022/06/06 01:44:23;;;;;;;4.70;3.80;;;;;;;25.88;49.66;100665.67;107065;1283;75693;-81
2022/06/06 01:46:48;;;;;;;4.30;3.60;;;;;;;25.88;49.76;100677.38;107028;1283;61150;-82
2022/06/06 01:49:14;;;;;;;5.40;3.80;;;;;;;25.88;49.79;100697.25;106916;1283;61309;-82
2022/06/06 01:51:40;;;;;;;4.80;3.60;;;;;;;25.88;49.69;100710.20;106937;1283;61295;-82
2022/06/06 01:54:06;;;;;;;5.00;3.90;;;;;;;25.87;49.80;100717.30;106880;1283;61277;-84
2022/06/06 01:56:34;;;;;;;4.70;3.40;;;;;;;25.88;49.57;100719.41;106923;1283;61366;-82
2022/06/06 01:58:59;;;;;;;4.90;3.70;;;;;;;25.88;49.84;100724.44;107067;1283;61225;-82
2022/06/06 02:01:25;;;;;;;4.50;3.80;;;;;;;25.88;49.70;100726.80;107218;1283;61276;-81
2022/06/06 02:03:52;;;;;;;5.10;3.90;;;;;;;25.88;49.68;100727.17;106791;1283;61365;-81
2022/06/06 02:06:17;;;;;;;4.40;3.60;;;;;;;25.88;49.88;100735.29;106576;1284;61268;-82
2022/06/06 02:08:44;;;;;;;5.30;3.50;;;;;;;25.88;49.84;100745.33;107214;1283;59896;-81
2022/06/06 02:11:10;;;;;;;4.40;3.50;;;;;;;25.88;49.81;100722.84;106942;1283;61276;-82
2022/06/06 02:13:37;;;;;;;5.00;3.50;;;;;;;25.88;49.92;100707.73;106727;1283;73673;-81
2022/06/06 02:16:03;;;;;;;4.10;3.30;;;;;;;25.88;49.89;100714.39;106932;1283;61351;-83
2022/06/06 02:18:29;;;;;;;5.00;3.80;;;;;;;25.87;49.69;100718.41;107243;1283;61212;-82
2022/06/06 02:20:54;;;;;;;4.80;3.20;;;;;;;25.87;49.85;100698.42;106885;1283;61126;-82
2022/06/06 02:23:20;;;;;;;4.30;3.50;;;;;;;25.87;49.77;100679.52;107196;1283;61935;-82
2022/06/06 02:25:46;;;;;;;5.10;3.60;;;;;;;25.86;49.71;100680.25;106892;1283;61248;-80
2022/06/06 02:28:12;;;;;;;4.50;3.40;;;;;;;25.86;49.82;100687.86;106776;1283;61251;-81
2022/06/06 02:30:37;;;;;;;5.30;3.70;;;;;;;25.86;49.88;100700.81;106920;1283;61255;-81
2022/06/06 02:33:03;;;;;;;4.50;3.50;;;;;;;25.86;49.85;100721.15;106888;1283;61292;-81
2022/06/06 02:35:32;;;;;;;4.40;3.40;;;;;;;25.87;49.84;100741.00;106888;1283;61258;-82
2022/06/06 02:37:58;;;;;;;4.40;3.30;;;;;;;25.86;49.80;100754.70;107233;1283;76147;-81
2022/06/06 02:40:25;;;;;;;4.20;3.40;;;;;;;25.86;49.88;100768.82;107225;1283;61228;-82
2022/06/06 02:42:50;;;;;;;3.90;3.20;;;;;;;25.86;49.91;100782.16;106884;1283;62417;-82
2022/06/06 02:45:16;;;;;;;4.20;3.30;;;;;;;25.86;49.85;100802.49;106905;1283;61289;-82
2022/06/06 02:47:46;;;;;;;4.40;3.30;;;;;;;25.86;49.91;100815.66;106905;1283;61281;-83
2022/06/06 02:50:12;;;;;;;4.30;3.30;;;;;;;25.86;49.91;100818.21;106497;1284;61466;-81
2022/06/06 02:52:39;;;;;;;4.80;3.50;;;;;;;25.86;49.95;100788.11;106848;1283;61232;-81
2022/06/06 02:55:05;;;;;;;4.30;3.40;;;;;;;25.85;49.97;100726.31;106671;1283;61269;-82
2022/06/06 02:57:31;;;;;;;3.90;3.10;;;;;;;25.85;49.89;100701.98;106858;1283;61300;-81
2022/06/06 02:59:57;;;;;;;4.40;3.20;;;;;;;25.85;49.81;100719.14;106934;1283;61125;-82
2022/06/06 03:02:23;;;;;;;4.10;2.90;;;;;;;25.85;49.90;100719.85;106691;1283;61334;-81
2022/06/06 03:04:49;;;;;;;5.30;3.40;;;;;;;25.85;49.99;100726.75;106941;1283;61279;-82
2022/06/06 03:07:56;;;;;;;4.00;3.10;;;;;;;25.85;49.78;100724.92;106895;1283;60085;-82
2022/06/06 03:10:27;;;;;;;4.40;3.40;;;;;;;25.84;49.77;100725.52;107216;1282;61265;-81
2022/06/06 03:13:00;;;;;;;4.70;3.40;;;;;;;25.84;49.88;100723.36;107234;1283;61148;-84
2022/06/06 03:15:41;;;;;;;3.90;3.10;;;;;;;25.84;49.80;100721.53;106844;1284;73841;-81
2022/06/06 03:21:20;;;;;;;3.80;3.10;;;;;;;25.84;49.94;100722.34;106930;1283;61271;-81
2022/06/06 03:23:51;;;;;;;4.20;3.20;;;;;;;25.84;49.78;100715.81;107045;1283;61390;-81
2022/06/06 03:26:26;;;;;;;4.30;3.30;;;;;;;25.84;49.94;100714.16;107205;1283;73709;-82
2022/06/06 03:29:22;;;;;;;4.70;3.50;;;;;;;25.84;49.85;100720.81;107213;1283;74511;-82
2022/06/06 03:32:03;;;;;;;4.50;3.40;;;;;;;25.83;49.91;100721.08;107025;1283;61282;-82
2022/06/06 03:34:38;;;;;;;5.30;3.40;;;;;;;25.84;49.99;100724.45;106924;1283;61475;-83
2022/06/06 03:37:19;;;;;;;6.50;3.30;;;;;;;25.83;50.07;100726.20;107051;1283;73726;-80
2022/06/06 03:40:06;;;;;;;5.00;3.40;;;;;;;25.82;49.83;100728.92;107224;1283;74578;-82
2022/06/06 03:42:48;;;;;;;5.50;2.90;;;;;;;25.82;50.07;100735.55;106895;1283;61960;-82
2022/06/06 03:45:38;;;;;;;4.70;3.20;;;;;;;25.80;49.90;100748.44;107251;1283;61186;-82
2022/06/06 03:48:43;;;;;;;4.40;3.30;;;;;;;25.80;49.64;100756.94;106935;1283;72748;-82
2022/06/06 03:51:32;;;;;;;4.50;2.90;;;;;;;25.78;49.59;100768.45;107216;1283;75128;-80
2022/06/06 03:54:25;;;;;;;7.30;3.20;;;;;;;25.77;49.62;100777.72;106869;1283;61133;-82
2022/06/06 03:57:20;;;;;;;5.20;2.90;;;;;;;25.76;49.49;100774.58;106418;1283;61646;-82
2022/06/06 03:59:55;;;;;;;4.30;3.00;;;;;;;25.75;49.42;100785.64;107170;1283;73851;-82
2022/06/06 04:02:25;;;;;;;5.80;3.00;;;;;;;25.75;49.21;100790.55;106893;1283;75024;-82
2022/06/06 04:04:51;;;;;;;6.70;3.10;;;;;;;25.73;49.25;100790.89;106892;1283;61840;-82
2022/06/06 04:07:16;;;;;;;4.80;2.80;;;;;;;25.73;49.10;100795.08;106907;1283;61934;-82
2022/06/06 04:09:42;;;;;;;5.10;3.00;;;;;;;25.71;48.94;100795.98;106972;1283;59293;-82
2022/06/06 04:12:31;;;;;;;4.40;2.70;;;;;;;25.66;48.98;100800.20;106879;1283;61361;-81
2022/06/06 04:15:15;;;;;;;3.90;2.50;;;;;;;25.63;48.90;100798.51;107238;1283;61263;-82
2022/06/06 04:18:13;;;;;;;3.60;2.10;;;;;;;25.61;48.95;100812.51;107239;1283;61166;-82
2022/06/06 04:20:46;;;;;;;5.70;2.50;;;;;;;25.53;48.59;100813.68;106677;1283;73585;-82
2022/06/06 04:23:14;;;;;;;3.50;2.30;;;;;;;25.39;48.54;100816.31;106896;1283;74948;-83
2022/06/06 04:25:59;;;;;;;2.40;1.60;;;;;;;25.36;48.43;100819.87;107229;1283;61100;-83
2022/06/06 04:28:49;;;;;;;3.10;1.80;;;;;;;25.36;48.27;100822.00;106980;1283;61764;-82
2022/06/06 04:31:49;;;;;;;5.30;1.80;;;;;;;25.34;48.28;100821.25;106954;1283;71454;-80
2022/06/06 04:34:33;;;;;;;4.20;1.90;;;;;;;25.35;48.07;100821.03;106698;1283;73721;-81
2022/06/06 04:37:06;;;;;;;3.70;1.80;;;;;;;25.33;48.05;100832.35;106920;1283;61661;-82
2022/06/06 04:39:45;;;;;;;5.10;2.00;;;;;;;25.25;47.88;100836.92;107089;1283;61220;-81
2022/06/06 04:42:17;;;;;;;4.80;1.60;;;;;;;25.18;47.69;100842.26;106668;1284;71679;-81
2022/06/06 04:45:12;;;;;;;4.90;1.60;;;;;;;25.09;47.46;100848.27;106651;1283;75636;-81
2022/06/06 04:47:40;;;;;;;5.80;1.70;;;;;;;25.00;47.41;100858.13;106806;1283;61268;-82
2022/06/06 04:50:08;;;;;;;3.50;1.80;;;;;;;24.95;47.51;100861.17;106702;1283;61238;-80
2022/06/06 04:52:36;;;;;;;3.50;1.60;;;;;;;24.87;47.58;100866.21;106452;1284;73514;-80
2022/06/06 04:55:03;;;;;;;3.10;1.50;;;;;;;24.77;47.62;100869.98;106394;1283;74846;-81
2022/06/06 04:57:29;;;;;;;2.50;1.70;;;;;;;24.60;47.42;100873.66;106617;1283;61268;-84
2022/06/06 04:59:56;;;;;;;4.30;1.60;;;;;;;24.52;47.67;100872.61;106611;1283;61302;-80
2022/06/06 05:02:21;;;;;;;4.10;1.80;;;;;;;24.41;47.46;100874.20;106464;1284;61259;-80
2022/06/06 05:04:47;;;;;;;5.20;2.00;;;;;;;24.31;47.54;100879.36;106606;1283;61337;-80
2022/06/06 05:07:33;;;;;;;6.50;1.80;;;;;;;24.23;47.79;100883.62;106597;1283;61360;-81
2022/06/06 05:10:19;;;;;;;2.50;1.70;;;;;;;24.22;47.86;100888.80;106985;1283;61237;-81
2022/06/06 05:13:12;;;;;;;3.90;1.80;;;;;;;24.28;48.07;100891.13;106883;1283;71654;-81
2022/06/06 05:15:41;;;;;;;6.10;2.20;;;;;;;24.39;48.10;100893.27;106927;1283;74664;-81
2022/06/06 05:18:16;;;;;;;4.80;2.10;;;;;;;24.50;48.07;100897.02;106767;1283;59509;-80
2022/06/06 05:21:00;;;;;;;3.20;1.80;;;;;;;24.46;48.12;100895.79;106962;1283;61443;-80
2022/06/06 05:23:47;;;;;;;5.70;2.20;;;;;;;24.53;48.09;100902.36;106680;1283;72651;-82
2022/06/06 05:26:35;;;;;;;3.20;2.00;;;;;;;24.39;47.82;100911.27;106900;1283;74823;-81
2022/06/06 05:29:10;;;;;;;5.20;2.10;;;;;;;24.22;48.07;100911.75;106943;1283;61292;-81
2022/06/06 05:32:08;;;;;;;4.00;2.50;;;;;;;24.23;48.11;100911.10;106629;1285;62136;-82
2022/06/06 05:34:39;;;;;;;4.10;2.00;;;;;;;24.31;48.22;100913.92;106815;1283;73896;-82
2022/06/06 05:37:23;;;;;;;5.40;2.20;;;;;;;24.41;48.20;100913.22;107099;1283;75820;-83
2022/06/06 05:40:02;;;;;;;5.70;2.00;;;;;;;24.49;48.05;100913.11;107039;1283;60745;-82
2022/06/06 05:43:02;;;;;;;4.90;2.10;;;;;;;24.39;47.86;100911.80;106875;1283;61600;-82
2022/06/06 05:45:50;;;;;;;7.30;2.30;;;;;;;24.37;48.04;100917.22;106938;1282;72785;-80
2022/06/06 05:48:25;;;;;;;4.80;1.80;;;;;;;24.35;47.86;100915.95;106822;1283;75949;-80
2022/06/06 05:51:13;;;;;;;4.20;2.30;;;;;;;24.34;47.79;100912.81;106966;1283;61145;-81
2022/06/06 05:54:05;;;;;;;3.90;2.20;;;;;;;24.37;47.70;100914.86;107332;1283;61524;-80
2022/06/06 05:56:49;;;;;;;5.70;2.40;;;;;;;24.39;47.72;100911.29;106738;1284;72788;-80
2022/06/06 05:59:42;;;;;;;3.20;2.00;;;;;;;24.45;47.65;100909.14;106925;1283;74778;-82
2022/06/06 06:02:13;;;;;;;5.30;1.80;;;;;;;24.55;47.46;100908.84;106363;1283;61376;-80
2022/06/06 06:04:57;;;;;;;3.60;1.70;;;;;;;24.64;47.34;100913.54;107172;1283;61645;-80
2022/06/06 06:07:29;;;;;;;3.90;1.80;;;;;;;24.69;47.05;100918.84;106880;1283;72830;-81
2022/06/06 06:10:01;;;;;;;4.10;1.90;;;;;;;24.72;47.11;100919.09;106902;1283;76055;-80
2022/06/06 06:12:39;;;;;;;5.20;1.90;;;;;;;24.74;46.97;100923.11;107059;1283;61281;-81
2022/06/06 06:15:14;;;;;;;3.20;1.80;;;;;;;24.71;46.84;100923.17;106427;1283;760571;-81
2022/06/06 06:17:40;;;;;;;10.30;1.90;;;;;;;24.59;46.79;100927.58;106919;1283;72780;-79
2022/06/06 06:20:10;;;;;;;5.20;1.80;;;;;;;24.54;46.82;100924.03;106937;1283;61070;-79
2022/06/06 06:22:38;;;;;;;3.80;1.60;;;;;;;24.52;46.72;100918.50;106785;1283;61298;-81
2022/06/06 06:25:05;;;;;;;7.90;2.10;;;;;;;24.48;46.56;100921.34;106728;1284;61419;-80
2022/06/06 06:27:34;;;;;;;6.00;2.10;;;;;;;24.51;46.50;100916.41;106674;1283;72552;-80
2022/06/06 06:30:01;;;;;;;2.90;1.80;;;;;;;24.57;46.47;100917.71;106655;1283;74847;-82
2022/06/06 06:33:07;;;;;;;5.60;1.90;;;;;;;24.61;46.50;100917.54;106891;1283;61263;-79
2022/06/06 06:35:55;;;;;;;7.30;2.00;;;;;;;24.62;46.26;100919.98;106942;1282;61079;-79
2022/06/06 06:38:45;;;;;;;6.00;2.30;;;;;;;24.65;46.30;100920.98;106610;1284;72996;-80
2022/06/06 06:41:34;;;;;;;5.40;2.00;;;;;;;24.76;46.33;100920.98;106857;1282;74485;-81
2022/06/06 06:44:05;;;;;;;4.40;2.10;;;;;;;24.81;46.09;100907.81;106921;1283;61524;-81
2022/06/06 06:46:33;;;;;;;6.20;1.90;;;;;;;24.77;45.92;100907.89;106409;1283;61230;-81
2022/06/06 06:49:17;;;;;;;4.70;2.10;;;;;;;24.68;45.67;100916.48;106476;1283;74156;-80
2022/06/06 06:51:52;;;;;;;6.20;2.10;;;;;;;24.59;45.87;100920.58;106625;1283;75696;-80
2022/06/06 06:54:29;;;;;;;3.00;1.80;;;;;;;24.63;45.98;100917.91;106875;1282;61119;-80
2022/06/06 06:56:58;;;;;;;3.80;1.90;;;;;;;24.75;45.98;100917.23;106599;1283;61253;-80
2022/06/06 06:59:33;;;;;;;4.80;1.90;;;;;;;24.85;45.89;100917.67;106901;1283;73331;-81
2022/06/06 07:10:51;;;;;;;5.60;2.00;;;;;;;24.68;45.62;100918.38;106608;1283;73166;-84
2022/06/06 07:13:22;;;;;;;5.40;1.90;;;;;;;24.74;45.76;100912.34;106030;1283;74826;-81
2022/06/06 07:16:22;;;;;;;6.90;2.10;;;;;;;24.75;45.82;100928.80;106388;1283;61183;-80
2022/06/06 07:19:19;;;;;;;10.50;2.50;;;;;;;24.75;45.78;100923.73;105427;1290;61440;-80
2022/06/06 07:21:45;;;;;;;7.20;2.40;;;;;;;24.83;45.98;100920.05;104720;1292;73754;-80
2022/06/06 07:24:14;;;;;;;5.60;1.80;;;;;;;24.90;45.95;100917.24;106974;1290;75511;-79
2022/06/06 07:26:41;;;;;;;7.10;2.00;;;;;;;24.98;46.02;100922.93;105885;1290;59391;-80
2022/06/06 07:29:09;;;;;;;7.60;2.20;;;;;;;25.06;46.11;100926.19;105558;1290;61323;-79
2022/06/06 07:32:06;;;;;;;5.60;1.80;;;;;;;25.13;46.00;100925.41;105514;1290;75023;-82
2022/06/06 07:34:57;;;;;;;11.90;2.30;;;;;;;25.07;45.75;100921.70;105212;1290;74759;-80
2022/06/06 07:37:36;;;;;;;10.30;2.00;;;;;;;25.03;45.59;100925.13;105375;1290;61062;-82
2022/06/06 07:40:23;;;;;;;7.20;2.20;;;;;;;24.93;45.42;100928.34;105389;1291;61404;-80
2022/06/06 07:43:28;;;;;;;7.60;2.10;;;;;;;24.90;45.46;100929.16;105276;1290;72817;-80
2022/06/06 07:46:10;;;;;;;9.80;2.20;;;;;;;24.83;45.34;100934.04;105632;1290;75898;-80
2022/06/06 07:49:15;;;;;;;5.50;2.10;;;;;;;24.84;45.37;100937.20;105160;1290;61277;-81
2022/06/06 07:51:49;;;;;;;6.80;2.10;;;;;;;24.72;44.98;100936.42;105105;1290;61614;-80
2022/06/06 07:54:42;;;;;;;11.20;2.10;;;;;;;24.72;44.92;100936.63;106688;1283;72981;-79
2022/06/06 07:57:13;;;;;;;5.30;1.90;;;;;;;24.72;44.92;100937.89;105933;1283;75738;-80
2022/06/06 08:00:00;;;;;;;5.00;2.10;;;;;;;24.69;44.70;100936.15;106323;1283;61500;-80
2022/06/06 08:02:38;;;;;;;4.60;1.90;;;;;;;24.65;44.48;100939.86;106519;1283;60417;-80
2022/06/06 08:05:03;;;;;;;4.60;2.10;;;;;;;24.47;44.16;100939.38;107315;1283;72926;-80
2022/06/06 08:08:09;;;;;;;6.20;2.20;;;;;;;24.46;44.43;100942.55;106939;1283;61398;-80
2022/06/06 08:10:43;;;;;;;8.30;2.10;;;;;;;24.41;44.44;100941.48;106581;1283;60322;-82
2022/06/06 08:13:24;;;;;;;8.30;2.00;;;;;;;24.48;44.34;100944.55;106618;1283;61050;-81
2022/06/06 08:16:20;;;;;;;5.70;2.20;;;;;;;24.52;44.40;100938.56;106674;1282;71922;-80
2022/06/06 08:18:55;;;;;;;8.30;2.40;;;;;;;24.52;44.19;100937.31;106497;1283;74411;-80
2022/06/06 08:21:34;;;;;;;4.50;2.50;;;;;;;24.52;44.15;100936.86;107059;1283;60280;-80
2022/06/06 08:24:02;;;;;;;4.30;2.50;;;;;;;24.56;44.32;100941.15;107087;1283;62312;-80
2022/06/06 08:26:28;;;;;;;5.20;2.30;;;;;;;24.63;44.17;100944.92;106686;1283;73667;-80
2022/06/06 08:28:54;;;;;;;4.90;2.10;;;;;;;24.70;44.32;100948.12;106702;1283;61262;-80
2022/06/06 08:31:19;;;;;;;5.00;2.50;;;;;;;24.74;44.32;100950.09;106930;1283;61275;-80
2022/06/06 08:33:46;;;;;;;4.40;2.30;;;;;;;24.74;44.21;100948.09;106657;1283;61830;-80
2022/06/06 08:36:38;;;;;;;4.30;2.20;;;;;;;24.73;44.14;100949.45;106955;1283;61269;-80
2022/06/06 08:39:10;;;;;;;5.20;2.40;;;;;;;24.73;44.06;100950.16;106920;1283;74552;-80
2022/06/06 08:42:13;;;;;;;8.70;2.50;;;;;;;24.77;44.08;100949.90;106883;1283;61160;-80
2022/06/06 08:45:12;;;;;;;6.30;2.20;;;;;;;24.79;43.93;100949.75;106929;1283;61049;-79
2022/06/06 08:47:56;;;;;;;6.20;2.40;;;;;;;24.81;43.99;100952.63;106938;1283;72855;-80
2022/06/06 08:51:06;;;;;;;5.90;2.10;;;;;;;24.84;43.76;100950.55;106658;1283;74701;-80
2022/06/06 08:53:35;;;;;;;4.50;2.10;;;;;;;24.80;43.62;100949.27;106269;1289;59707;-81
2022/06/06 08:56:31;;;;;;;14.30;2.20;;;;;;;24.79;43.71;100956.16;106018;1289;61010;-79
2022/06/06 08:59:29;;;;;;;5.30;2.20;;;;;;;24.79;43.70;100952.06;106212;1289;73887;-81
2022/06/06 09:02:16;;;;;;;5.00;2.20;;;;;;;24.81;43.56;100956.18;105463;1294;75767;-79
2022/06/06 09:05:09;;;;;;;5.70;2.10;;;;;;;24.74;43.27;100949.91;105446;1295;61721;-80
2022/06/06 09:07:50;;;;;;;5.40;2.30;;;;;;;24.67;43.18;100945.09;105369;1295;61180;-79
2022/06/06 09:10:35;;;;;;;5.00;2.00;;;;;;;24.72;43.32;100942.85;105315;1295;73735;-79
2022/06/06 09:13:07;;;;;;;6.80;2.10;;;;;;;24.82;43.32;100947.12;105355;1295;75621;-79
2022/06/06 09:15:50;;;;;;;2.60;1.90;;;;;;;24.90;43.56;100944.08;105353;1295;61419;-81
2022/06/06 09:18:18;;;;;;;4.40;2.00;;;;;;;24.98;43.54;100947.05;105348;1295;61172;-81
2022/06/06 09:20:48;;;;;;;4.70;2.20;;;;;;;25.05;43.59;100945.72;105317;1295;73021;-80
2022/06/06 09:23:31;;;;;;;5.90;2.50;;;;;;;25.11;43.78;100943.77;105398;1294;74419;-79
2022/06/06 09:26:23;;;;;;;4.60;1.90;;;;;;;25.17;43.74;100946.96;105383;1295;61292;-80
2022/06/06 09:28:57;;;;;;;3.60;1.80;;;;;;;25.22;43.77;100948.16;105560;1289;61099;-79
2022/06/06 09:31:51;;;;;;;7.50;2.10;;;;;;;25.27;43.73;100952.77;105933;1289;73559;-80
2022/06/06 09:34:54;;;;;;;4.70;2.00;;;;;;;25.31;43.66;100948.45;105928;1289;74624;-80
2022/06/06 09:37:42;;;;;;;3.20;1.90;;;;;;;25.34;43.83;100951.70;105896;1289;61240;-80
2022/06/06 09:40:39;;;;;;;3.70;1.90;;;;;;;25.36;43.70;100951.36;106272;1284;61885;-80
2022/06/06 09:43:15;;;;;;;4.70;1.90;;;;;;;25.37;43.71;100950.52;106657;1283;74391;-80
2022/06/06 09:45:52;;;;;;;5.80;2.10;;;;;;;25.39;43.72;100947.66;106631;1283;74648;-79
2022/06/06 09:48:30;;;;;;;3.80;1.90;;;;;;;25.40;43.65;100939.80;106865;1283;61493;-79
2022/06/06 09:51:44;;;;;;;4.20;1.90;;;;;;;25.42;43.75;100941.60;106770;1283;61743;-80
2022/06/06 10:01:10;;;;;;;4.40;2.00;;;;;;;25.47;43.74;100942.48;105923;1290;61294;-80
2022/06/06 10:03:57;;;;;;;2.80;1.80;;;;;;;25.48;43.45;100940.61;106080;1289;60330;-80
2022/06/06 10:06:42;;;;;;;3.30;1.80;;;;;;;25.48;43.50;100938.75;105981;1289;73948;-79
2022/06/06 10:09:19;;;;;;;6.20;2.10;;;;;;;25.49;43.67;100934.16;105819;1290;75696;-80
2022/06/06 10:12:12;;;;;;;3.40;2.10;;;;;;;25.51;43.50;100934.30;105736;1292;61171;-81
2022/06/06 10:15:01;;;;;;;3.00;1.70;;;;;;;25.52;43.63;100932.41;105967;1289;61783;-80
2022/06/06 10:17:36;;;;;;;6.20;2.10;;;;;;;25.54;43.53;100931.21;106008;1289;73727;-78
2022/06/06 10:20:23;;;;;;;4.60;1.80;;;;;;;25.55;43.59;100931.10;106008;1290;74176;-80
2022/06/06 10:23:23;;;;;;;2.80;1.80;;;;;;;25.56;43.62;100928.47;106097;1289;61053;-81
2022/06/06 10:26:38;;;;;;;4.50;2.20;;;;;;;25.57;43.47;100928.55;105928;1289;62032;-82
2022/06/06 10:30:10;;;;;;;3.60;1.90;;;;;;;25.58;43.44;100921.98;105013;1300;72839;-81
2022/06/06 10:32:52;;;;;;;3.60;1.90;;;;;;;25.59;43.38;100923.91;105353;1295;74776;-80
2022/06/06 10:35:25;;;;;;;3.70;2.00;;;;;;;25.59;43.31;100921.89;105093;1297;61465;-80
2022/06/06 10:37:56;;;;;;;4.50;2.30;;;;;;;25.60;43.28;100924.50;105412;1298;61432;-81
2022/06/06 10:40:49;;;;;;;3.30;2.10;;;;;;;25.62;43.22;100917.38;105402;1295;72966;-81
2022/06/06 10:43:32;;;;;;;3.90;2.00;;;;;;;25.62;43.36;100922.57;105406;1296;74585;-79
2022/06/06 10:46:02;;;;;;;4.60;2.00;;;;;;;25.63;43.27;100920.71;105371;1297;61331;-80
2022/06/06 10:49:06;;;;;;;8.00;2.50;;;;;;;25.63;43.14;100918.18;105531;1296;61185;-80
2022/06/06 10:51:41;;;;;;;3.70;1.90;;;;;;;25.64;43.15;100910.91;105334;1298;74423;-80
2022/06/06 10:54:18;;;;;;;4.10;2.30;;;;;;;25.64;43.29;100907.46;105458;1295;74628;-80
2022/06/06 10:57:16;;;;;;;5.00;2.20;;;;;;;25.64;43.11;100908.73;105445;1295;61209;-83
2022/06/06 11:00:09;;;;;;;6.80;2.20;;;;;;;25.64;43.10;100910.34;105295;1297;61153;-80
2022/06/06 11:02:43;;;;;;;5.80;2.00;;;;;;;25.64;43.11;100906.32;105447;1297;73868;-83
2022/06/06 11:05:21;;;;;;;4.70;2.20;;;;;;;25.65;43.11;100903.39;105649;1289;74453;-80
2022/06/06 11:07:59;;;;;;;4.20;2.00;;;;;;;25.64;43.02;100905.04;106853;1283;61314;-80
2022/06/06 11:10:29;;;;;;;5.20;2.30;;;;;;;25.65;42.90;100910.08;106989;1283;61167;-80
2022/06/06 11:13:25;;;;;;;5.40;2.30;;;;;;;25.66;42.71;100908.38;107064;1283;73740;-80
2022/06/06 11:16:02;;;;;;;4.00;2.50;;;;;;;25.65;43.02;100906.41;107121;1283;74581;-80
2022/06/06 11:18:56;;;;;;;5.00;2.20;;;;;;;25.67;43.07;100901.44;107107;1283;61297;-80
2022/06/06 11:22:12;;;;;;;5.00;2.30;;;;;;;25.67;42.98;100901.25;106882;1283;61430;-81
2022/06/06 11:24:53;;;;;;;3.70;2.30;;;;;;;25.67;43.11;100905.77;106032;1289;73765;-80
2022/06/06 11:27:51;;;;;;;3.60;2.40;;;;;;;25.67;43.11;100905.71;106252;1289;75699;-80
2022/06/06 11:30:57;;;;;;;3.90;2.10;;;;;;;25.68;43.26;100900.45;106936;1283;61190;-82
2022/06/06 11:33:42;;;;;;;4.20;2.20;;;;;;;25.68;43.23;100898.46;106867;1283;61398;-80
2022/06/06 11:36:22;;;;;;;2.90;2.00;;;;;;;25.68;43.44;100898.11;106993;1283;73261;-81
2022/06/06 11:39:29;;;;;;;3.40;2.20;;;;;;;25.68;43.31;100897.55;107097;1283;75136;-81
2022/06/06 11:42:04;;;;;;;3.90;2.10;;;;;;;25.67;43.27;100901.89;106284;1289;61164;-80
2022/06/06 11:45:00;;;;;;;4.30;2.10;;;;;;;25.67;43.37;100902.27;106066;1289;61222;-80
2022/06/06 11:47:47;;;;;;;4.20;2.30;;;;;;;25.67;43.05;100901.42;105861;1290;72791;-80
2022/06/06 11:50:52;;;;;;;3.70;2.50;;;;;;;25.68;43.08;100893.23;105821;1290;75929;-80
2022/06/06 11:53:23;;;;;;;6.60;2.30;;;;;;;25.68;42.95;100886.56;105882;1290;61383;-80
2022/06/06 11:56:15;;;;;;;5.70;2.30;;;;;;;25.68;42.87;100881.81;105914;1290;61363;-80
2022/06/06 11:59:05;;;;;;;3.10;2.20;;;;;;;25.69;42.61;100876.15;105865;1290;73612;-80
2022/06/06 12:01:49;;;;;;;4.40;2.70;;;;;;;25.70;42.68;100874.09;105858;1290;74858;-80
2022/06/06 12:05:09;;;;;;;4.90;2.40;;;;;;;25.70;42.59;100876.07;105923;1290;61253;-81
2022/06/06 12:07:50;;;;;;;4.30;2.10;;;;;;;25.70;42.69;100868.86;105462;1298;61426;-81
2022/06/06 12:10:26;;;;;;;4.70;2.60;;;;;;;25.70;42.53;100869.51;105374;1297;73944;-81
2022/06/06 12:13:23;;;;;;;4.60;2.40;;;;;;;25.72;42.62;100868.71;105318;1298;75584;-81
2022/06/06 12:16:00;;;;;;;4.40;2.20;;;;;;;25.71;42.57;100865.67;105176;1300;60915;-81
2022/06/06 12:19:00;;;;;;;3.80;2.30;;;;;;;25.72;42.54;100867.77;105218;1296;61147;-80
2022/06/06 12:21:43;;;;;;;4.40;2.40;;;;;;;25.72;42.41;100864.34;105212;1300;72639;-80
2022/06/06 12:24:42;;;;;;;4.00;2.40;;;;;;;25.72;42.39;100867.05;105252;1300;74656;-80
2022/06/06 12:27:24;;;;;;;4.70;2.40;;;;;;;25.72;42.47;100873.56;105153;1300;61763;-79
2022/06/06 12:30:08;;;;;;;3.30;2.30;;;;;;;25.72;42.36;100878.23;105285;1299;61300;-80
2022/06/06 12:33:02;;;;;;;3.20;2.10;;;;;;;25.72;42.29;100875.86;105259;1299;73260;-80